Time;durP1;ratioP1;P1;durP2;ratioP2;P2;SDS_P1;SDS_P2;PMS_P1;PMS_P2;Temp;Humidity;BMP_temperature;BMP_pressure;BME280_temperature;BME280_humidity;BME280_pressure;Samples;Min_cycle;Max_cycle;Signal;HPM_P1;HPM_P2
2022/07/22 00:01:13;;;;;;;0.53;0.53;;;21.80;92.40;;;;;;4945481;29;20031;-81
2022/07/22 00:03:38;;;;;;;0.83;0.80;;;21.80;93.30;;;;;;4946457;29;20027;-81
2022/07/22 00:06:04;;;;;;;0.73;0.73;;;21.80;93.50;;;;;;4945982;29;20034;-81
2022/07/22 00:08:30;;;;;;;0.95;0.60;;;21.70;94.00;;;;;;4945160;29;20039;-81
2022/07/22 00:10:56;;;;;;;0.50;0.50;;;21.70;94.40;;;;;;4914778;29;20783;-81
2022/07/22 00:13:22;;;;;;;1.60;1.50;;;21.70;94.90;;;;;;4946928;29;20038;-80
2022/07/22 00:15:47;;;;;;;0.27;0.27;;;21.70;95.60;;;;;;4928901;29;20039;-80
2022/07/22 00:18:13;;;;;;;0.90;0.47;;;21.60;96.40;;;;;;4946496;29;20043;-80
2022/07/22 00:20:39;;;;;;;0.70;0.67;;;21.50;97.10;;;;;;4925337;29;20028;-79
2022/07/22 00:23:05;;;;;;;0.82;0.65;;;21.50;97.50;;;;;;4943867;29;20523;-80
2022/07/22 00:25:31;;;;;;;0.27;0.27;;;21.50;97.70;;;;;;4946968;29;20078;-80
2022/07/22 00:27:56;;;;;;;0.43;0.43;;;21.50;98.00;;;;;;4908070;29;20043;-80
2022/07/22 00:30:22;;;;;;;0.30;0.20;;;21.40;98.50;;;;;;4945797;29;20302;-79
2022/07/22 00:32:48;;;;;;;1.33;0.70;;;21.40;99.10;;;;;;4930197;29;20067;-80
2022/07/22 00:35:15;;;;;;;0.60;0.53;;;21.30;99.50;;;;;;4946223;28;20491;-87
2022/07/22 00:37:40;;;;;;;0.65;0.57;;;21.30;99.90;;;;;;4945100;29;20035;-80
2022/07/22 00:40:07;;;;;;;0.67;0.47;;;21.20;99.90;;;;;;4946905;29;20037;-80
2022/07/22 00:42:34;;;;;;;0.80;0.60;;;21.20;99.90;;;;;;4929695;29;20042;-80
2022/07/22 00:44:59;;;;;;;0.75;0.70;;;21.10;99.90;;;;;;4912752;28;20039;-80
2022/07/22 00:47:25;;;;;;;1.07;0.83;;;21.10;99.90;;;;;;4926749;29;20039;-84
2022/07/22 00:49:51;;;;;;;0.30;0.30;;;21.20;99.90;;;;;;4945147;29;20034;-86
2022/07/22 00:52:18;;;;;;;0.47;0.47;;;21.20;99.90;;;;;;4945136;29;20046;-86
2022/07/22 00:54:44;;;;;;;0.73;0.50;;;21.20;99.90;;;;;;4946666;29;20530;-86
2022/07/22 00:57:10;;;;;;;0.60;0.60;;;21.10;99.90;;;;;;4948534;29;20078;-87
2022/07/22 00:59:36;;;;;;;0.77;0.67;;;21.00;99.90;;;;;;4946999;29;20035;-86
2022/07/22 01:02:01;;;;;;;10.30;0.60;;;20.90;99.90;;;;;;4945149;29;20042;-87
2022/07/22 01:04:27;;;;;;;1.53;0.50;;;20.90;99.90;;;;;;4946531;29;20031;-88
2022/07/22 01:06:53;;;;;;;0.70;0.30;;;20.80;99.90;;;;;;4930461;29;20404;-87
2022/07/22 01:09:18;;;;;;;5.53;0.47;;;20.70;99.90;;;;;;4927322;29;20039;-86
2022/07/22 01:11:44;;;;;;;0.93;0.60;;;20.70;99.90;;;;;;4929797;29;20118;-89
2022/07/22 01:14:10;;;;;;;0.40;0.40;;;20.60;99.90;;;;;;4933124;28;20045;-86
2022/07/22 01:16:38;;;;;;;0.30;0.20;;;20.60;99.90;;;;;;4947116;28;20809;-87
2022/07/22 01:19:04;;;;;;;1.13;0.85;;;20.60;99.90;;;;;;4928503;29;20031;-87
2022/07/22 01:21:30;;;;;;;0.55;0.55;;;20.50;99.90;;;;;;4945807;29;20039;-83
2022/07/22 01:23:59;;;;;;;0.65;0.65;;;20.50;99.90;;;;;;4936176;29;20047;-83
2022/07/22 01:26:25;;;;;;;0.10;0.10;;;20.40;99.90;;;;;;4921325;29;20031;-83
2022/07/22 01:28:51;;;;;;;0.20;0.20;;;20.30;99.90;;;;;;4946511;29;20073;-84
2022/07/22 01:31:16;;;;;;;1.07;0.80;;;20.30;99.90;;;;;;4927992;29;20122;-84
2022/07/22 01:33:42;;;;;;;0.50;0.50;;;20.30;99.90;;;;;;4944912;29;20031;-82
2022/07/22 01:36:09;;;;;;;1.27;0.95;;;20.40;99.90;;;;;;4945538;29;20465;-84
2022/07/22 01:38:35;;;;;;;1.23;0.50;;;20.40;99.90;;;;;;4927795;29;20050;-83
2022/07/22 01:41:01;;;;;;;1.90;0.87;;;20.30;99.90;;;;;;4945455;29;20558;-84
2022/07/22 01:43:26;;;;;;;1.00;0.37;;;20.30;99.90;;;;;;4928978;29;20335;-83
2022/07/22 01:45:53;;;;;;;0.53;0.53;;;20.30;99.90;;;;;;4945282;29;20398;-83
2022/07/22 01:48:20;;;;;;;;;;;20.30;99.90;;;;;;4926720;29;20050;-82
2022/07/22 01:50:45;;;;;;;;;;;20.20;99.90;;;;;;4945292;29;19921;-83
2022/07/22 01:53:19;;;;;;;0.90;0.90;;;20.10;99.90;;;;;;4945877;29;19914;-83
2022/07/22 01:55:45;;;;;;;1.30;0.85;;;20.10;99.90;;;;;;4944315;29;20039;-83
2022/07/22 01:58:13;;;;;;;0.40;0.40;;;20.10;99.90;;;;;;4945621;29;20394;-83
2022/07/22 02:00:39;;;;;;;1.73;1.63;;;20.10;99.90;;;;;;4938595;29;20295;-82
2022/07/22 02:03:05;;;;;;;0.30;0.30;;;20.10;99.90;;;;;;4941516;29;20038;-83
2022/07/22 02:05:33;;;;;;;;;;;20.00;99.90;;;;;;4944430;29;20369;-82
2022/07/22 02:08:04;;;;;;;2.38;1.90;;;20.00;99.90;;;;;;4933079;29;20317;-82
2022/07/22 02:10:30;;;;;;;0.52;0.45;;;19.90;99.90;;;;;;4944428;29;20027;-81
2022/07/22 02:12:57;;;;;;;0.40;0.35;;;19.90;99.90;;;;;;4926213;29;20039;-82
2022/07/22 02:15:23;;;;;;;1.75;0.50;;;19.90;99.90;;;;;;4945040;28;20134;-81
2022/07/22 02:17:49;;;;;;;0.52;0.52;;;19.80;99.90;;;;;;4940787;29;20869;-81
2022/07/22 02:20:15;;;;;;;1.07;0.50;;;19.80;99.90;;;;;;4944258;29;20046;-81
2022/07/22 02:22:41;;;;;;;2.63;1.60;;;19.80;99.90;;;;;;4936793;29;20039;-81
2022/07/22 02:25:07;;;;;;;1.00;1.00;;;19.80;99.90;;;;;;4943277;29;20748;-80
2022/07/22 02:27:35;;;;;;;0.90;0.90;;;19.70;99.90;;;;;;4944861;29;20069;-82
2022/07/22 02:30:00;;;;;;;0.50;0.50;;;19.70;99.90;;;;;;4925933;29;20027;-82
2022/07/22 02:32:26;;;;;;;1.50;0.53;;;19.70;99.90;;;;;;4941775;29;20038;-82
2022/07/22 02:34:52;;;;;;;1.00;0.63;;;19.70;99.90;;;;;;4940501;29;20032;-81
2022/07/22 02:37:18;;;;;;;1.43;0.80;;;19.60;99.90;;;;;;4924235;29;20038;-81
2022/07/22 02:39:43;;;;;;;2.67;0.80;;;19.60;99.90;;;;;;4943220;29;20677;-80
2022/07/22 02:42:09;;;;;;;1.80;0.80;;;19.50;99.90;;;;;;4944519;29;20422;-80
2022/07/22 02:44:35;;;;;;;0.53;0.53;;;19.50;99.90;;;;;;4944702;29;20078;-81
2022/07/22 02:47:01;;;;;;;0.77;0.30;;;19.60;99.90;;;;;;4943768;29;20031;-81
2022/07/22 02:49:26;;;;;;;0.93;0.77;;;19.50;99.90;;;;;;4926118;29;20034;-81
2022/07/22 02:51:52;;;;;;;0.63;0.63;;;19.40;99.90;;;;;;4943899;29;20031;-81
2022/07/22 02:54:18;;;;;;;1.20;0.50;;;19.50;99.90;;;;;;4928003;29;20114;-82
2022/07/22 02:56:43;;;;;;;0.30;0.30;;;19.40;99.90;;;;;;4927720;29;20028;-80
2022/07/22 02:59:09;;;;;;;0.63;0.63;;;19.40;99.90;;;;;;4945912;28;20823;-80
2022/07/22 03:01:34;;;;;;;0.40;0.40;;;19.30;99.90;;;;;;4923797;29;20502;-81
2022/07/22 03:04:00;;;;;;;0.67;0.67;;;19.30;99.90;;;;;;4942639;29;20078;-81
2022/07/22 03:06:26;;;;;;;1.23;1.13;;;19.30;99.90;;;;;;4937011;29;20134;-80
2022/07/22 03:08:52;;;;;;;0.83;0.60;;;19.20;99.90;;;;;;4926887;29;20053;-81
2022/07/22 03:11:18;;;;;;;1.30;1.20;;;19.20;99.90;;;;;;4944022;29;20167;-80
2022/07/22 03:13:43;;;;;;;0.77;0.77;;;19.20;99.90;;;;;;4944398;28;20090;-82
2022/07/22 03:16:12;;;;;;;0.13;0.07;;;19.20;99.90;;;;;;4943775;29;20624;-82
2022/07/22 03:18:37;;;;;;;0.90;0.57;;;19.20;99.90;;;;;;4944428;29;20067;-80
2022/07/22 03:21:03;;;;;;;0.40;0.40;;;19.10;99.90;;;;;;4943197;29;20086;-84
2022/07/22 03:23:29;;;;;;;2.20;0.70;;;19.10;99.90;;;;;;4944316;29;20500;-86
2022/07/22 03:25:56;;;;;;;1.07;0.97;;;19.20;99.90;;;;;;4923091;29;20032;-83
2022/07/22 03:28:22;;;;;;;0.85;0.73;;;19.10;99.90;;;;;;4943862;29;20043;-82
2022/07/22 03:30:48;;;;;;;0.40;0.40;;;19.00;99.90;;;;;;4943277;29;20045;-83
2022/07/22 03:33:14;;;;;;;0.40;0.40;;;19.00;99.90;;;;;;4942708;29;20023;-81
2022/07/22 03:35:39;;;;;;;0.43;0.43;;;19.00;99.90;;;;;;4944755;29;20023;-82
2022/07/22 03:38:05;;;;;;;0.60;0.60;;;19.00;99.90;;;;;;4945318;29;20039;-86
2022/07/22 03:40:31;;;;;;;0.47;0.47;;;19.00;99.90;;;;;;4943963;29;20069;-84
2022/07/22 03:42:57;;;;;;;1.30;0.63;;;18.90;99.90;;;;;;4945410;29;20058;-85
2022/07/22 03:45:22;;;;;;;2.07;0.33;;;18.90;99.90;;;;;;4944767;29;20035;-85
2022/07/22 03:47:48;;;;;;;0.97;0.90;;;18.90;99.90;;;;;;4943435;29;20054;-84
2022/07/22 03:50:14;;;;;;;0.33;0.33;;;18.80;99.90;;;;;;4943540;29;20023;-83
2022/07/22 03:52:39;;;;;;;2.63;1.20;;;18.80;99.90;;;;;;4944531;29;20027;-79
2022/07/22 03:55:05;;;;;;;1.77;1.67;;;18.80;99.90;;;;;;4942565;29;20094;-80
2022/07/22 03:57:31;;;;;;;0.40;0.40;;;18.80;99.90;;;;;;4940958;29;20051;-84
2022/07/22 03:59:57;;;;;;;9.20;2.47;;;18.70;99.90;;;;;;4940914;29;20130;-85
2022/07/22 04:02:23;;;;;;;1.23;1.10;;;18.80;99.90;;;;;;4942222;29;20387;-86
2022/07/22 04:04:48;;;;;;;0.87;0.87;;;18.70;99.90;;;;;;4943399;29;20125;-84
2022/07/22 04:07:14;;;;;;;1.23;1.13;;;18.70;99.90;;;;;;4943915;29;20102;-84
2022/07/22 04:09:39;;;;;;;0.60;0.60;;;18.60;99.90;;;;;;4942935;28;20039;-84
2022/07/22 04:12:05;;;;;;;0.90;0.90;;;18.50;99.90;;;;;;4931424;28;20035;-83
2022/07/22 04:14:31;;;;;;;0.80;0.60;;;18.50;99.90;;;;;;4945302;28;20027;-85
2022/07/22 04:16:57;;;;;;;4.63;0.63;;;18.60;99.90;;;;;;4946514;29;20055;-84
2022/07/22 04:19:22;;;;;;;0.70;0.70;;;18.60;99.90;;;;;;4946904;29;20038;-84
2022/07/22 04:21:48;;;;;;;1.10;0.70;;;18.60;99.90;;;;;;4947203;29;20106;-84
2022/07/22 04:24:14;;;;;;;0.80;0.80;;;18.60;99.90;;;;;;4947320;29;20102;-84
2022/07/22 04:26:39;;;;;;;0.40;0.40;;;18.70;99.90;;;;;;4942022;29;21102;-85
2022/07/22 04:29:06;;;;;;;0.40;0.40;;;18.60;99.90;;;;;;4939379;29;22087;-84
2022/07/22 04:31:32;;;;;;;0.68;0.68;;;18.60;99.90;;;;;;4930749;29;20031;-82
2022/07/22 04:33:58;;;;;;;0.30;0.30;;;18.60;99.90;;;;;;4913413;29;20052;-82
2022/07/22 04:36:24;;;;;;;0.60;0.60;;;18.60;99.90;;;;;;4935612;29;20114;-83
2022/07/22 04:38:50;;;;;;;1.63;1.30;;;18.60;99.90;;;;;;4944490;29;20118;-82
2022/07/22 04:41:16;;;;;;;1.38;0.68;;;18.60;99.90;;;;;;4947416;29;20138;-83
2022/07/22 04:43:42;;;;;;;0.83;0.80;;;18.70;99.90;;;;;;4945193;29;20127;-81
2022/07/22 04:46:08;;;;;;;0.60;0.60;;;18.90;99.90;;;;;;4946675;29;20114;-84
2022/07/22 04:48:33;;;;;;;4.43;1.20;;;19.10;99.90;;;;;;4946898;29;20039;-84
2022/07/22 04:51:00;;;;;;;1.07;0.80;;;19.10;99.90;;;;;;4944686;29;20034;-83
2022/07/22 04:53:26;;;;;;;5.53;1.75;;;19.20;99.90;;;;;;4946222;29;20035;-91
2022/07/22 04:55:52;;;;;;;0.50;0.43;;;19.30;99.90;;;;;;4929170;29;20344;-80
2022/07/22 04:58:17;;;;;;;0.40;0.40;;;19.40;99.90;;;;;;4945748;29;20649;-80
2022/07/22 05:00:43;;;;;;;0.37;0.37;;;19.50;99.90;;;;;;4946195;29;20071;-80
2022/07/22 05:03:09;;;;;;;0.70;0.70;;;19.50;99.90;;;;;;4927899;29;20031;-80
2022/07/22 05:05:35;;;;;;;1.63;1.53;;;19.70;99.90;;;;;;4929722;29;20035;-80
2022/07/22 05:08:00;;;;;;;0.10;0.10;;;19.80;99.90;;;;;;4928568;29;20800;-80
2022/07/22 05:10:27;;;;;;;1.07;0.70;;;20.00;99.90;;;;;;4943637;29;20037;-80
2022/07/22 05:12:53;;;;;;;0.73;0.70;;;20.10;99.90;;;;;;4936993;29;20039;-80
2022/07/22 05:15:19;;;;;;;0.57;0.57;;;20.10;99.90;;;;;;4946445;28;20561;-80
2022/07/22 05:17:44;;;;;;;0.40;0.40;;;20.30;99.90;;;;;;4943384;29;20118;-78
2022/07/22 05:20:11;;;;;;;0.40;0.40;;;20.50;99.90;;;;;;4944188;29;20036;-78
2022/07/22 05:22:37;;;;;;;0.38;0.38;;;20.80;99.90;;;;;;4947362;28;20497;-78
2022/07/22 05:25:03;;;;;;;7.50;1.27;;;20.90;99.90;;;;;;4946167;29;20027;-78
2022/07/22 05:27:28;;;;;;;0.85;0.85;;;20.90;99.90;;;;;;4947912;28;20134;-80
2022/07/22 05:29:54;;;;;;;0.57;0.50;;;21.30;99.90;;;;;;4947791;29;20123;-80
2022/07/22 05:32:20;;;;;;;4.30;1.00;;;21.80;99.90;;;;;;4946634;29;20127;-81
2022/07/22 05:34:45;;;;;;;0.80;0.53;;;22.00;99.90;;;;;;4946748;28;20035;-80
2022/07/22 05:37:11;;;;;;;0.90;0.77;;;22.20;99.90;;;;;;4947391;29;20034;-80
2022/07/22 05:39:37;;;;;;;0.50;0.33;;;22.30;99.90;;;;;;4948043;28;20031;-80
2022/07/22 05:42:02;;;;;;;4.20;0.57;;;22.60;98.70;;;;;;4947074;29;20510;-79
2022/07/22 05:44:28;;;;;;;0.20;0.20;;;23.00;96.60;;;;;;4948004;28;20499;-79
2022/07/22 05:46:54;;;;;;;1.40;0.90;;;23.00;95.30;;;;;;4945213;28;20507;-81
2022/07/22 05:49:21;;;;;;;0.47;0.47;;;23.10;94.80;;;;;;4946185;29;20493;-82
2022/07/22 05:51:47;;;;;;;4.30;1.40;;;23.40;93.80;;;;;;4940985;29;20530;-81
2022/07/22 05:54:13;;;;;;;0.40;0.40;;;23.70;92.60;;;;;;4946996;29;20062;-83
2022/07/22 05:56:39;;;;;;;0.73;0.73;;;23.80;91.90;;;;;;4947276;29;20027;-83
2022/07/22 05:59:04;;;;;;;1.85;0.40;;;24.10;91.60;;;;;;4946377;28;20035;-82
2022/07/22 06:01:30;;;;;;;0.50;0.47;;;24.30;90.40;;;;;;4946735;29;20085;-83
2022/07/22 06:03:56;;;;;;;0.90;0.70;;;24.60;86.30;;;;;;4944684;29;20780;-82
2022/07/22 06:06:24;;;;;;;0.27;0.27;;;24.50;85.80;;;;;;4943147;28;20027;-84
2022/07/22 06:08:49;;;;;;;0.75;0.57;;;24.90;83.70;;;;;;4944804;29;20318;-83
2022/07/22 06:11:15;;;;;;;0.37;0.33;;;25.10;82.10;;;;;;4946779;28;20069;-80
2022/07/22 06:13:41;;;;;;;0.20;0.20;;;25.40;81.10;;;;;;4945501;28;20476;-81
2022/07/22 06:16:07;;;;;;;5.53;1.33;;;25.70;78.80;;;;;;4951386;28;20291;-81
2022/07/22 06:18:32;;;;;;;1.25;0.93;;;25.70;79.20;;;;;;4947122;29;20073;-81
2022/07/22 06:20:58;;;;;;;0.55;0.55;;;25.70;78.10;;;;;;4928278;29;20035;-81
2022/07/22 06:23:24;;;;;;;0.30;0.30;;;26.30;77.00;;;;;;4946942;29;20483;-82
2022/07/22 06:25:49;;;;;;;0.05;0.05;;;26.90;74.20;;;;;;4946489;29;20259;-81
2022/07/22 06:28:15;;;;;;;0.77;0.55;;;27.00;72.40;;;;;;4946040;29;20852;-82
2022/07/22 06:30:41;;;;;;;0.63;0.50;;;27.00;72.30;;;;;;4947044;29;20130;-81
2022/07/22 06:33:07;;;;;;;0.10;0.10;;;27.20;72.00;;;;;;4947351;28;20127;-81
2022/07/22 06:35:33;;;;;;;0.43;0.38;;;27.40;70.00;;;;;;4945730;29;20031;-81
2022/07/22 06:37:59;;;;;;;0.10;0.10;;;27.70;70.40;;;;;;4945135;29;20035;-81
2022/07/22 06:40:25;;;;;;;0.75;0.40;;;28.00;68.60;;;;;;4928761;29;20031;-81
2022/07/22 06:42:50;;;;;;;1.33;0.95;;;28.20;68.20;;;;;;4928778;29;20031;-81
2022/07/22 06:45:16;;;;;;;0.35;0.35;;;28.80;66.70;;;;;;4945415;29;20786;-83
2022/07/22 06:47:42;;;;;;;0.82;0.75;;;29.10;66.90;;;;;;4946919;29;20122;-79
2022/07/22 06:50:09;;;;;;;0.43;0.40;;;30.00;63.60;;;;;;4941257;29;20322;-79
2022/07/22 06:52:38;;;;;;;0.38;0.20;;;29.90;63.50;;;;;;4940813;29;20035;-79
2022/07/22 06:55:05;;;;;;;0.98;0.93;;;30.30;62.90;;;;;;4939548;29;20023;-79
2022/07/22 06:57:30;;;;;;;0.82;0.32;;;30.40;62.10;;;;;;4912788;29;20735;-80
2022/07/22 06:59:56;;;;;;;0.57;0.57;;;30.20;62.70;;;;;;4928621;29;20110;-79
2022/07/22 07:02:22;;;;;;;;;;;30.10;63.40;;;;;;4947371;29;20078;-79
2022/07/22 07:04:47;;;;;;;;;;;30.50;61.60;;;;;;4946682;29;19910;-79
2022/07/22 07:07:13;;;;;;;;;;;30.60;61.70;;;;;;4947152;29;19973;-80
2022/07/22 07:09:38;;;;;;;;;;;30.80;60.20;;;;;;4946525;29;20535;-80
2022/07/22 07:12:04;;;;;;;;;;;31.60;58.10;;;;;;4946563;29;20352;-81
2022/07/22 07:14:30;;;;;;;0.38;0.38;;;31.60;57.60;;;;;;4947471;28;19911;-80
2022/07/22 07:16:55;;;;;;;;;;;31.70;57.60;;;;;;4945597;29;20055;-81
2022/07/22 07:19:21;;;;;;;0.40;0.40;;;32.50;56.50;;;;;;4911668;29;20294;-80
2022/07/22 07:21:47;;;;;;;;;;;32.10;56.20;;;;;;4927928;29;20039;-81
2022/07/22 07:24:12;;;;;;;0.55;0.43;;;32.00;57.00;;;;;;4927940;29;19940;-81
2022/07/22 07:26:39;;;;;;;0.40;0.40;;;32.40;56.80;;;;;;4944992;29;20027;-80
2022/07/22 07:29:04;;;;;;;0.20;0.20;;;33.00;55.90;;;;;;4911411;29;20114;-80
2022/07/22 07:31:30;;;;;;;0.30;0.30;;;33.40;55.30;;;;;;4927528;29;20580;-81
2022/07/22 07:33:56;;;;;;;2.30;0.55;;;33.60;55.70;;;;;;4928062;29;20043;-81
2022/07/22 07:36:22;;;;;;;0.20;0.17;;;33.00;56.70;;;;;;4945107;29;20766;-81
2022/07/22 07:38:48;;;;;;;1.48;0.70;;;33.60;55.40;;;;;;4928041;29;20035;-81
2022/07/22 07:41:14;;;;;;;0.95;0.63;;;33.40;54.60;;;;;;4945682;29;20107;-81
2022/07/22 07:43:40;;;;;;;0.47;0.45;;;33.80;53.10;;;;;;4945689;29;20027;-81
2022/07/22 07:46:05;;;;;;;0.30;0.30;;;35.20;52.40;;;;;;4926803;29;20857;-81
2022/07/22 07:48:31;;;;;;;0.32;0.22;;;35.90;51.10;;;;;;4949041;29;20155;-81
2022/07/22 07:50:57;;;;;;;0.50;0.45;;;36.70;48.70;;;;;;4949493;28;20672;-81
2022/07/22 07:53:23;;;;;;;0.73;0.43;;;37.40;48.50;;;;;;4948626;29;20027;-81
2022/07/22 07:55:49;;;;;;;0.60;0.43;;;35.60;48.60;;;;;;4949639;29;20024;-80
2022/07/22 07:58:15;;;;;;;0.30;0.30;;;34.90;49.70;;;;;;4949706;29;20038;-80
2022/07/22 08:00:42;;;;;;;0.80;0.80;;;33.80;51.80;;;;;;4948696;29;20024;-81
2022/07/22 08:03:08;;;;;;;0.50;0.50;;;31.70;55.50;;;;;;4918646;29;20035;-80
2022/07/22 08:05:34;;;;;;;0.55;0.55;;;31.10;56.70;;;;;;4948783;29;20117;-81
2022/07/22 08:08:01;;;;;;;0.20;0.20;;;34.00;54.00;;;;;;4948693;29;20713;-81
2022/07/22 08:10:27;;;;;;;0.60;0.60;;;32.90;54.00;;;;;;4916396;29;20527;-81
2022/07/22 08:12:53;;;;;;;;;;;31.60;57.00;;;;;;4932224;29;20059;-81
2022/07/22 08:15:19;;;;;;;0.28;0.28;;;32.30;55.10;;;;;;4931880;29;20301;-81
2022/07/22 08:17:45;;;;;;;0.80;0.73;;;35.80;53.10;;;;;;4946478;29;20058;-81
2022/07/22 08:20:11;;;;;;;0.57;0.57;;;33.20;53.80;;;;;;4946983;29;20059;-81
2022/07/22 08:22:39;;;;;;;;;;;30.70;57.60;;;;;;4949794;29;20046;-80
2022/07/22 08:25:05;;;;;;;0.45;0.32;;;31.20;59.60;;;;;;4941135;28;20388;-81
2022/07/22 08:27:31;;;;;;;0.93;0.90;;;31.20;58.20;;;;;;4948628;28;20070;-80
2022/07/22 08:29:57;;;;;;;;;;;32.10;58.00;;;;;;4949950;29;20145;-81
2022/07/22 08:32:23;;;;;;;0.40;0.30;;;35.10;52.40;;;;;;4949208;29;20013;-80
2022/07/22 08:34:51;;;;;;;0.20;0.20;;;34.90;51.00;;;;;;4948857;29;20710;-81
2022/07/22 08:37:17;;;;;;;1.10;0.70;;;34.00;53.90;;;;;;4947391;29;20407;-81
2022/07/22 08:39:43;;;;;;;0.88;0.30;;;36.50;50.50;;;;;;4949346;28;20183;-81
2022/07/22 08:42:08;;;;;;;0.90;0.82;;;35.50;50.10;;;;;;4947081;29;20102;-81
2022/07/22 08:44:34;;;;;;;0.55;0.55;;;37.40;50.70;;;;;;4948234;29;20137;-81
2022/07/22 08:47:03;;;;;;;0.20;0.20;;;38.50;48.50;;;;;;4948687;29;20023;-80
2022/07/22 08:49:29;;;;;;;0.47;0.32;;;38.60;48.60;;;;;;4947241;28;20123;-83
2022/07/22 08:51:55;;;;;;;0.10;0.00;;;39.00;47.90;;;;;;4946269;28;20506;-83
2022/07/22 08:54:21;;;;;;;0.43;0.43;;;37.80;48.00;;;;;;4937276;28;20045;-83
2022/07/22 08:56:51;;;;;;;0.85;0.32;;;35.10;51.40;;;;;;4948677;28;20455;-83
2022/07/22 08:59:17;;;;;;;0.70;0.65;;;33.70;52.60;;;;;;4944738;29;20110;-82
2022/07/22 09:02:09;;;;;;;0.47;0.43;;;35.60;52.10;;;;;;4945472;28;20031;-83
2022/07/22 09:04:56;;;;;;;4.22;1.20;;;37.30;48.90;;;;;;4946500;28;20372;-83
2022/07/22 09:07:36;;;;;;;0.73;0.45;;;37.40;46.70;;;;;;4947667;28;20066;-83
2022/07/22 09:10:05;;;;;;;0.65;0.30;;;38.60;47.10;;;;;;4950014;28;20034;-83
2022/07/22 09:12:32;;;;;;;0.22;0.22;;;39.00;45.70;;;;;;4946767;28;20027;-82
2022/07/22 09:14:59;;;;;;;0.28;0.28;;;39.50;44.40;;;;;;4948103;28;20733;-82
2022/07/22 09:17:29;;;;;;;0.10;0.10;;;39.10;45.00;;;;;;4946748;28;20051;-81
2022/07/22 09:19:59;;;;;;;0.17;0.17;;;39.20;45.10;;;;;;4946482;29;20054;-82
2022/07/22 09:22:38;;;;;;;0.40;0.40;;;35.60;47.40;;;;;;4946852;29;20035;-82
2022/07/22 09:25:26;;;;;;;0.63;0.50;;;34.40;47.50;;;;;;4930169;29;20019;-82
2022/07/22 09:27:54;;;;;;;0.65;0.30;;;34.60;48.30;;;;;;4947638;29;20558;-83
2022/07/22 09:30:25;;;;;;;1.45;0.30;;;37.70;45.90;;;;;;4946155;29;20023;-83
2022/07/22 09:32:54;;;;;;;0.55;0.38;;;39.00;43.70;;;;;;4946923;29;20046;-82
2022/07/22 09:35:20;;;;;;;0.63;0.40;;;39.70;45.20;;;;;;4947477;29;20126;-83
2022/07/22 09:37:57;;;;;;;0.10;0.10;;;40.50;43.70;;;;;;4947180;29;20035;-83
2022/07/22 09:40:53;;;;;;;0.63;0.63;;;41.50;43.40;;;;;;4946920;29;20110;-82
2022/07/22 09:43:20;;;;;;;0.50;0.50;;;41.00;41.50;;;;;;4930330;29;20043;-84
2022/07/22 09:45:57;;;;;;;1.15;0.80;;;40.40;41.90;;;;;;4946406;29;20035;-85
2022/07/22 09:48:23;;;;;;;1.27;0.77;;;40.30;43.30;;;;;;4937591;28;20759;-84
2022/07/22 09:50:50;;;;;;;0.70;0.50;;;40.70;43.90;;;;;;4929713;29;20106;-85
2022/07/22 09:53:18;;;;;;;0.50;0.20;;;38.80;44.00;;;;;;4939263;29;20061;-85
2022/07/22 09:55:44;;;;;;;0.40;0.40;;;39.20;44.50;;;;;;4946049;29;20031;-86
2022/07/22 09:58:11;;;;;;;3.40;1.10;;;38.70;44.00;;;;;;4930193;29;20558;-86
2022/07/22 10:00:37;;;;;;;1.98;1.02;;;38.50;44.40;;;;;;4947069;29;20494;-85
2022/07/22 10:03:06;;;;;;;0.55;0.52;;;38.80;43.30;;;;;;4946106;29;20768;-85
2022/07/22 10:05:37;;;;;;;0.15;0.15;;;39.20;43.60;;;;;;4947317;28;20069;-85
2022/07/22 10:08:05;;;;;;;0.20;0.15;;;40.40;44.00;;;;;;4946738;28;20070;-85
2022/07/22 10:10:33;;;;;;;0.82;0.45;;;40.60;43.30;;;;;;4947175;29;20023;-85
2022/07/22 10:13:00;;;;;;;0.75;0.75;;;39.60;43.70;;;;;;4946680;29;20039;-85
2022/07/22 10:15:27;;;;;;;0.08;0.08;;;38.40;44.50;;;;;;4948155;28;20031;-85
2022/07/22 10:17:56;;;;;;;1.02;0.52;;;38.10;45.00;;;;;;4929265;29;20129;-84
2022/07/22 10:20:25;;;;;;;0.55;0.25;;;38.80;44.80;;;;;;4947124;29;20524;-85
2022/07/22 10:22:57;;;;;;;0.32;0.32;;;39.30;43.40;;;;;;4920787;29;20411;-85
2022/07/22 10:25:26;;;;;;;0.43;0.43;;;38.30;43.90;;;;;;4942870;29;20042;-85
2022/07/22 10:27:54;;;;;;;0.95;0.30;;;39.20;44.70;;;;;;4944947;29;20087;-85
2022/07/22 10:30:28;;;;;;;0.20;0.20;;;38.50;44.80;;;;;;4945233;29;20031;-85
2022/07/22 10:33:14;;;;;;;0.20;0.20;;;39.60;44.60;;;;;;4945209;29;20038;-85
2022/07/22 10:35:43;;;;;;;2.78;0.63;;;37.30;44.90;;;;;;4945798;29;20035;-85
2022/07/22 10:38:11;;;;;;;0.15;0.15;;;36.90;44.10;;;;;;4945312;29;20023;-85
2022/07/22 10:40:51;;;;;;;0.60;0.28;;;36.20;45.10;;;;;;4945369;29;20411;-85
2022/07/22 10:43:19;;;;;;;0.22;0.22;;;36.10;48.20;;;;;;4928651;29;20106;-86
2022/07/22 10:45:46;;;;;;;1.02;0.57;;;36.10;46.50;;;;;;4946778;29;20495;-83
2022/07/22 10:48:24;;;;;;;1.38;1.00;;;35.90;46.70;;;;;;4943904;29;20047;-82
2022/07/22 10:51:08;;;;;;;0.47;0.20;;;34.70;48.40;;;;;;4942431;29;20031;-83
2022/07/22 10:53:53;;;;;;;0.52;0.52;;;35.70;49.40;;;;;;4945734;29;20028;-82
2022/07/22 10:56:29;;;;;;;0.57;0.55;;;35.50;50.30;;;;;;4933047;29;20098;-83
2022/07/22 10:58:54;;;;;;;;;;;34.70;50.50;;;;;;4946435;29;20030;-83
2022/07/22 11:01:27;;;;;;;0.30;0.30;;;34.60;49.70;;;;;;4945704;29;20370;-83
2022/07/22 11:03:53;;;;;;;0.20;0.20;;;34.80;50.10;;;;;;4946347;29;20027;-84
2022/07/22 11:06:30;;;;;;;0.85;0.32;;;34.20;50.50;;;;;;4945509;29;20039;-85
2022/07/22 11:09:00;;;;;;;0.45;0.45;;;33.90;49.60;;;;;;4944005;29;20070;-84
2022/07/22 11:11:43;;;;;;;7.07;0.28;;;34.00;49.20;;;;;;4945761;29;20024;-83
2022/07/22 11:14:30;;;;;;;0.98;0.63;;;33.90;50.00;;;;;;4950217;28;20041;-82
2022/07/22 11:17:03;;;;;;;0.30;0.30;;;33.40;51.20;;;;;;4945349;29;20086;-82
2022/07/22 11:19:31;;;;;;;0.30;0.30;;;33.50;50.90;;;;;;4945898;28;20042;-82
2022/07/22 11:22:03;;;;;;;0.40;0.40;;;33.80;51.00;;;;;;4932233;29;20035;-82
2022/07/22 11:24:30;;;;;;;0.38;0.38;;;33.80;50.70;;;;;;4932261;29;20039;-83
2022/07/22 11:26:58;;;;;;;0.40;0.40;;;33.80;51.20;;;;;;4948946;29;20551;-83
2022/07/22 11:29:27;;;;;;;0.43;0.40;;;34.20;52.50;;;;;;4948527;29;20578;-83
2022/07/22 11:31:54;;;;;;;1.25;1.15;;;33.80;52.90;;;;;;4949233;29;20195;-84
2022/07/22 11:34:22;;;;;;;0.50;0.50;;;33.80;52.60;;;;;;4931899;29;20034;-83
2022/07/22 11:36:49;;;;;;;3.10;0.63;;;33.70;52.30;;;;;;4947702;29;20158;-90
2022/07/22 11:39:20;;;;;;;0.38;0.38;;;33.40;52.30;;;;;;4931827;29;20031;-81
2022/07/22 11:41:46;;;;;;;1.20;0.77;;;33.50;53.20;;;;;;4949387;29;20078;-82
2022/07/22 11:44:11;;;;;;;;;;;33.70;53.60;;;;;;4932309;29;20621;-81
2022/07/22 11:46:39;;;;;;;0.30;0.30;;;34.10;53.20;;;;;;4949452;29;19914;-81
2022/07/22 11:49:06;;;;;;;0.73;0.40;;;34.30;52.20;;;;;;4948878;29;20061;-84
2022/07/22 11:51:34;;;;;;;1.13;0.70;;;33.60;52.90;;;;;;4948822;29;20047;-83
2022/07/22 11:54:00;;;;;;;1.27;0.90;;;33.70;52.60;;;;;;4947733;29;20549;-84
2022/07/22 11:56:27;;;;;;;0.85;0.60;;;34.10;53.10;;;;;;4946384;29;20074;-87
2022/07/22 11:58:54;;;;;;;0.57;0.40;;;33.70;52.60;;;;;;4947168;29;20073;-84
2022/07/22 12:01:21;;;;;;;0.57;0.30;;;33.50;53.50;;;;;;4929823;29;20058;-84
2022/07/22 12:03:53;;;;;;;0.47;0.47;;;33.60;52.50;;;;;;4948370;29;20031;-84
2022/07/22 12:06:20;;;;;;;0.43;0.43;;;33.40;52.60;;;;;;4948403;29;20558;-84
2022/07/22 12:09:02;;;;;;;2.42;0.80;;;33.10;54.10;;;;;;4947980;29;20031;-84
2022/07/22 12:11:29;;;;;;;0.77;0.77;;;32.90;53.80;;;;;;4947124;29;20058;-83
2022/07/22 12:13:55;;;;;;;1.02;0.52;;;32.80;54.30;;;;;;4946894;29;20533;-83
2022/07/22 12:16:20;;;;;;;;;;;33.10;54.70;;;;;;4931247;28;20051;-83
2022/07/22 12:18:56;;;;;;;0.20;0.20;;;33.40;54.40;;;;;;4947806;28;19910;-84
2022/07/22 12:21:23;;;;;;;0.15;0.15;;;33.00;53.10;;;;;;4945444;29;20446;-83
2022/07/22 12:24:09;;;;;;;1.45;1.00;;;33.10;54.40;;;;;;4947901;28;20620;-85
2022/07/22 12:26:47;;;;;;;0.17;0.17;;;33.00;54.20;;;;;;4947467;28;20117;-86
2022/07/22 12:29:12;;;;;;;0.90;0.90;;;33.20;54.80;;;;;;4947277;29;20051;-86
2022/07/22 12:32:00;;;;;;;0.22;0.17;;;33.10;54.40;;;;;;4946497;28;20042;-86
2022/07/22 12:34:41;;;;;;;2.47;0.40;;;33.00;54.50;;;;;;4946780;29;20050;-84
2022/07/22 12:37:13;;;;;;;0.85;0.63;;;33.20;53.10;;;;;;4947691;29;20086;-84
2022/07/22 12:39:39;;;;;;;0.43;0.43;;;32.90;53.50;;;;;;4946009;29;20384;-84
2022/07/22 12:42:15;;;;;;;;;;;33.20;52.90;;;;;;4946833;29;20499;-84
2022/07/22 12:44:59;;;;;;;3.20;0.30;;;33.00;52.90;;;;;;4947644;28;20408;-84
2022/07/22 12:47:50;;;;;;;0.47;0.47;;;33.10;53.80;;;;;;4961787;28;20019;-81
2022/07/22 12:50:23;;;;;;;0.40;0.40;;;33.60;54.00;;;;;;4947565;28;20027;-81
2022/07/22 12:52:51;;;;;;;0.45;0.45;;;33.80;52.10;;;;;;4946659;29;20047;-81